Time;durP1;ratioP1;P1;durP2;ratioP2;P2;SDS_P1;SDS_P2;PMS_P1;PMS_P2;Temp;Humidity;BMP_temperature;BMP_pressure;BME280_temperature;BME280_humidity;BME280_pressure;Samples;Min_cycle;Max_cycle;Signal;HPM_P1;HPM_P2
2023/08/14 00:00:53;;;;;;;4.20;4.10;;;14.80;99.90;;;;;;5024973;28;20534;-65
2023/08/14 00:03:20;;;;;;;4.20;4.10;;;14.70;99.90;;;;;;5024549;28;21090;-66
2023/08/14 00:05:47;;;;;;;4.17;4.07;;;14.70;99.90;;;;;;5017728;28;20464;-66
2023/08/14 00:08:13;;;;;;;4.23;4.13;;;14.70;99.90;;;;;;5028388;28;20456;-66
2023/08/14 00:10:41;;;;;;;4.30;4.20;;;14.70;99.90;;;;;;5028128;28;20464;-65
2023/08/14 00:13:07;;;;;;;4.43;4.33;;;14.70;99.90;;;;;;5024017;28;20505;-66
2023/08/14 00:15:35;;;;;;;4.07;3.97;;;14.80;99.90;;;;;;5027390;28;20457;-64
2023/08/14 00:18:02;;;;;;;4.10;4.00;;;14.80;99.90;;;;;;5026587;28;20495;-65
2023/08/14 00:20:29;;;;;;;4.10;4.00;;;14.80;99.90;;;;;;5022584;28;20465;-65
2023/08/14 00:22:56;;;;;;;4.60;4.50;;;14.80;99.90;;;;;;5019307;28;20465;-66
2023/08/14 00:25:23;;;;;;;4.00;3.90;;;14.70;99.90;;;;;;5020581;28;20983;-66
2023/08/14 00:27:49;;;;;;;4.50;4.40;;;14.70;99.90;;;;;;5028157;28;20468;-65
2023/08/14 00:30:17;;;;;;;4.30;4.20;;;14.70;99.90;;;;;;5027968;28;20898;-65
2023/08/14 00:32:46;;;;;;;4.53;4.43;;;14.60;99.90;;;;;;5025464;28;20465;-66
2023/08/14 00:35:13;;;;;;;4.30;4.20;;;14.60;99.90;;;;;;5027020;28;20857;-64
2023/08/14 00:37:40;;;;;;;4.87;4.77;;;14.50;99.90;;;;;;5018380;28;20986;-65
2023/08/14 00:40:09;;;;;;;4.50;4.40;;;14.50;99.90;;;;;;5026019;28;20466;-66
2023/08/14 00:42:35;;;;;;;4.70;4.60;;;14.50;99.90;;;;;;5023644;28;20476;-65
2023/08/14 00:45:02;;;;;;;4.60;4.50;;;14.40;99.90;;;;;;5027930;28;20830;-66
2023/08/14 00:47:30;;;;;;;4.80;4.70;;;14.40;99.90;;;;;;5024181;28;21036;-66
2023/08/14 00:49:58;;;;;;;4.83;4.73;;;14.40;99.90;;;;;;5017751;28;20477;-65
2023/08/14 00:52:31;;;;;;;5.30;5.20;;;14.40;99.90;;;;;;5020507;28;20468;-66
2023/08/14 00:55:00;;;;;;;5.03;4.93;;;14.40;99.90;;;;;;5022854;28;20488;-66
2023/08/14 00:57:27;;;;;;;5.00;4.90;;;14.40;99.90;;;;;;5024204;28;20546;-65
2023/08/14 00:59:54;;;;;;;5.50;5.40;;;14.40;99.90;;;;;;5024606;28;20523;-66
2023/08/14 01:02:22;;;;;;;5.20;5.10;;;14.40;99.90;;;;;;5023724;28;20471;-65
2023/08/14 01:04:49;;;;;;;4.90;4.80;;;14.40;99.90;;;;;;5025083;28;20876;-65
2023/08/14 01:07:18;;;;;;;5.13;5.03;;;14.40;99.90;;;;;;5020663;28;20472;-64
2023/08/14 01:09:46;;;;;;;5.57;5.37;;;14.30;99.90;;;;;;5027082;28;20456;-65
2023/08/14 01:12:20;;;;;;;5.20;5.10;;;14.30;99.90;;;;;;5026993;28;20483;-66
2023/08/14 01:14:52;;;;;;;5.20;5.10;;;14.20;99.90;;;;;;5028438;28;20460;-66
2023/08/14 01:17:20;;;;;;;5.50;5.30;;;14.20;99.90;;;;;;5021913;28;20461;-64
2023/08/14 01:19:49;;;;;;;5.60;5.40;;;14.20;99.90;;;;;;5019988;28;20492;-64
2023/08/14 01:22:33;;;;;;;5.50;5.30;;;14.10;99.90;;;;;;5021950;28;20461;-66
2023/08/14 01:25:24;;;;;;;5.60;5.40;;;14.10;99.90;;;;;;5020164;28;20965;-64
2023/08/14 01:27:51;;;;;;;5.60;5.40;;;14.10;99.90;;;;;;5021621;28;20464;-66
2023/08/14 01:30:21;;;;;;;5.70;5.50;;;14.10;99.90;;;;;;5025753;28;21046;-64
2023/08/14 01:32:48;;;;;;;5.70;5.50;;;14.10;99.90;;;;;;5023121;28;20465;-66
2023/08/14 01:35:17;;;;;;;5.73;5.53;;;14.10;99.90;;;;;;5030823;28;20940;-65
2023/08/14 01:37:52;;;;;;;5.70;5.50;;;14.10;99.90;;;;;;5030582;28;20814;-64
2023/08/14 01:40:34;;;;;;;5.70;5.50;;;14.10;99.90;;;;;;5025912;28;20463;-66
2023/08/14 01:43:05;;;;;;;6.40;6.20;;;14.00;99.90;;;;;;5025217;28;20477;-66
2023/08/14 01:45:35;;;;;;;6.10;5.90;;;14.00;99.90;;;;;;5024062;28;20469;-65
2023/08/14 01:48:04;;;;;;;6.13;5.93;;;13.90;99.90;;;;;;5023452;28;20465;-64
2023/08/14 01:50:31;;;;;;;6.00;5.80;;;13.90;99.90;;;;;;5029895;28;20457;-66
2023/08/14 01:52:58;;;;;;;5.63;5.43;;;13.90;99.90;;;;;;5030568;28;20460;-64
2023/08/14 01:55:27;;;;;;;6.37;6.17;;;13.90;99.90;;;;;;5023071;28;20497;-64
2023/08/14 01:57:55;;;;;;;5.80;5.60;;;13.80;99.90;;;;;;5027007;28;20488;-65
2023/08/14 02:00:22;;;;;;;6.00;5.80;;;13.70;99.90;;;;;;5027487;28;20468;-64
2023/08/14 02:02:49;;;;;;;6.07;5.87;;;13.70;99.90;;;;;;5025397;28;20469;-65
2023/08/14 02:05:16;;;;;;;5.77;5.60;;;13.70;99.90;;;;;;5030315;28;20457;-66
2023/08/14 02:07:43;;;;;;;6.20;6.00;;;13.70;99.90;;;;;;5026350;28;20466;-64
2023/08/14 02:10:10;;;;;;;5.70;5.60;;;13.70;99.90;;;;;;5024689;28;20880;-66
2023/08/14 02:12:37;;;;;;;5.87;5.67;;;13.70;99.90;;;;;;5019480;28;20941;-64
2023/08/14 02:15:06;;;;;;;5.80;5.70;;;13.70;99.90;;;;;;5018725;28;20479;-65
2023/08/14 02:17:33;;;;;;;6.23;6.03;;;13.70;99.90;;;;;;5030010;28;20552;-64
2023/08/14 02:20:00;;;;;;;4.90;4.80;;;13.70;99.90;;;;;;5029778;28;20495;-65
2023/08/14 02:22:28;;;;;;;5.27;5.17;;;13.70;99.90;;;;;;5029943;28;20452;-64
2023/08/14 02:24:55;;;;;;;4.80;4.70;;;13.70;99.90;;;;;;5026144;28;20472;-66
2023/08/14 02:27:22;;;;;;;5.30;5.20;;;13.70;99.90;;;;;;5021307;28;20453;-64
2023/08/14 02:29:49;;;;;;;5.40;5.30;;;13.70;99.90;;;;;;5026967;28;20484;-64
2023/08/14 02:32:17;;;;;;;5.30;5.20;;;13.70;99.90;;;;;;5016102;28;20465;-65
2023/08/14 02:34:45;;;;;;;5.83;5.70;;;13.70;99.90;;;;;;5025161;28;20640;-65
2023/08/14 02:37:12;;;;;;;5.43;5.33;;;13.60;99.90;;;;;;5025484;28;20865;-65
2023/08/14 02:39:41;;;;;;;5.60;5.50;;;13.60;99.90;;;;;;5024214;28;20492;-65
2023/08/14 02:42:08;;;;;;;5.53;5.43;;;13.60;99.90;;;;;;5014680;28;20662;-64
2023/08/14 02:44:35;;;;;;;5.30;5.20;;;13.50;99.90;;;;;;5026905;28;20469;-66
2023/08/14 02:47:03;;;;;;;5.50;5.40;;;13.50;99.90;;;;;;5017520;28;20458;-64
2023/08/14 02:49:31;;;;;;;5.83;5.63;;;13.40;99.90;;;;;;5029299;28;20480;-64
2023/08/14 02:51:58;;;;;;;5.40;5.30;;;13.50;99.90;;;;;;5029277;28;20457;-65
2023/08/14 02:54:25;;;;;;;6.10;5.90;;;13.50;99.90;;;;;;5029094;28;20494;-65
2023/08/14 02:56:51;;;;;;;5.30;5.20;;;13.50;99.90;;;;;;5014695;28;20473;-64
2023/08/14 02:59:18;;;;;;;5.40;5.30;;;13.50;99.90;;;;;;5024060;28;20508;-64
2023/08/14 03:01:45;;;;;;;5.10;5.00;;;13.50;99.90;;;;;;5020166;28;20901;-65
2023/08/14 03:04:13;;;;;;;5.30;5.20;;;13.50;99.90;;;;;;5029094;28;20453;-65
2023/08/14 03:06:41;;;;;;;5.30;5.20;;;13.40;99.90;;;;;;5021166;28;20464;-64
2023/08/14 03:09:08;;;;;;;5.67;5.57;;;13.40;99.90;;;;;;5029078;28;20464;-65
2023/08/14 03:11:35;;;;;;;5.67;5.57;;;13.30;99.90;;;;;;5028989;28;20484;-64
2023/08/14 03:14:02;;;;;;;6.30;6.10;;;13.30;99.90;;;;;;5027989;28;20456;-66
2023/08/14 03:16:29;;;;;;;6.10;5.90;;;13.20;99.90;;;;;;5018447;28;20450;-65
2023/08/14 03:18:57;;;;;;;6.03;5.83;;;13.20;99.90;;;;;;5015801;28;20490;-64
2023/08/14 03:21:23;;;;;;;6.00;5.80;;;13.20;99.90;;;;;;5022851;28;20461;-66
2023/08/14 03:23:52;;;;;;;6.50;6.30;;;13.10;99.90;;;;;;5028776;28;20465;-66
2023/08/14 03:26:19;;;;;;;6.00;5.80;;;13.10;99.90;;;;;;5019040;28;20830;-66
2023/08/14 03:28:48;;;;;;;6.57;6.37;;;13.10;99.90;;;;;;5026687;28;21209;-66
2023/08/14 03:31:14;;;;;;;6.70;6.50;;;13.10;99.90;;;;;;5023000;28;20468;-65
2023/08/14 03:33:41;;;;;;;6.70;6.50;;;13.10;99.90;;;;;;5017526;28;20457;-66
2023/08/14 03:36:08;;;;;;;6.33;6.13;;;13.00;99.90;;;;;;5023309;28;20490;-66
2023/08/14 03:38:35;;;;;;;6.43;6.23;;;13.10;99.90;;;;;;5022420;28;20487;-65
2023/08/14 03:41:04;;;;;;;6.47;6.27;;;13.10;99.90;;;;;;5024394;28;20458;-64
2023/08/14 03:43:31;;;;;;;6.20;6.00;;;13.20;99.90;;;;;;5024678;28;20489;-65
2023/08/14 03:45:58;;;;;;;6.27;6.07;;;13.20;99.90;;;;;;5025022;28;20465;-66
2023/08/14 03:48:25;;;;;;;5.90;5.70;;;13.20;99.90;;;;;;5014128;28;20460;-64
2023/08/14 03:50:52;;;;;;;5.90;5.70;;;13.20;99.90;;;;;;5020596;28;20465;-65
2023/08/14 03:53:20;;;;;;;6.20;6.00;;;13.20;99.90;;;;;;5028160;28;20576;-65
2023/08/14 03:55:47;;;;;;;6.10;5.90;;;13.10;99.90;;;;;;5028188;28;20453;-66
2023/08/14 03:58:15;;;;;;;6.60;6.40;;;13.10;99.90;;;;;;5020678;28;20879;-64
2023/08/14 04:00:46;;;;;;;5.87;5.67;;;13.10;99.90;;;;;;5021955;28;20464;-64
2023/08/14 04:03:14;;;;;;;6.40;6.20;;;13.10;99.90;;;;;;5022896;28;20835;-65
2023/08/14 04:05:41;;;;;;;6.67;6.47;;;13.00;99.90;;;;;;5022866;28;20828;-66
2023/08/14 04:08:09;;;;;;;6.53;6.33;;;13.00;99.90;;;;;;5028416;28;20464;-65
2023/08/14 04:10:36;;;;;;;7.37;7.17;;;12.90;99.90;;;;;;5028179;28;20544;-65
2023/08/14 04:13:04;;;;;;;6.20;6.00;;;12.90;99.90;;;;;;5024386;28;20499;-65
2023/08/14 04:15:33;;;;;;;6.30;6.10;;;12.90;99.90;;;;;;5016604;28;21011;-64
2023/08/14 04:18:00;;;;;;;7.00;6.80;;;12.90;99.90;;;;;;5020684;28;20445;-64
2023/08/14 04:20:27;;;;;;;6.60;6.40;;;12.80;99.90;;;;;;5028163;28;20492;-65
2023/08/14 04:22:54;;;;;;;6.73;6.53;;;12.70;99.90;;;;;;5028382;28;20974;-65
2023/08/14 04:25:21;;;;;;;7.83;7.53;;;12.70;99.90;;;;;;5026570;28;20469;-65
2023/08/14 04:27:48;;;;;;;6.50;6.30;;;12.70;99.90;;;;;;5019507;28;20472;-65
2023/08/14 04:30:14;;;;;;;6.80;6.60;;;12.80;99.90;;;;;;5027953;28;20959;-66
2023/08/14 04:32:43;;;;;;;7.10;6.90;;;12.70;99.90;;;;;;5024192;28;20475;-65
2023/08/14 04:35:10;;;;;;;7.00;6.80;;;12.70;99.90;;;;;;5019253;28;20622;-66
2023/08/14 04:37:37;;;;;;;6.90;6.70;;;12.80;99.90;;;;;;5030865;28;20959;-65
2023/08/14 04:40:05;;;;;;;7.10;6.90;;;12.80;99.90;;;;;;5027690;28;20511;-66
2023/08/14 04:42:33;;;;;;;7.40;7.20;;;12.80;99.90;;;;;;5024330;28;20479;-67
2023/08/14 04:45:00;;;;;;;7.20;7.00;;;12.80;99.90;;;;;;5023536;28;20918;-64
2023/08/14 04:47:28;;;;;;;7.17;6.97;;;12.80;99.90;;;;;;5030995;28;20464;-66
2023/08/14 04:49:57;;;;;;;7.57;7.37;;;12.80;99.90;;;;;;5031434;28;20468;-65
2023/08/14 04:52:24;;;;;;;7.30;7.10;;;12.90;99.90;;;;;;5024145;28;20503;-66
2023/08/14 04:54:51;;;;;;;7.30;7.10;;;12.90;99.90;;;;;;5027177;28;20480;-66
2023/08/14 04:57:18;;;;;;;7.70;7.50;;;13.00;99.90;;;;;;5027364;28;20835;-67
2023/08/14 04:59:45;;;;;;;7.50;7.30;;;13.10;99.90;;;;;;5027286;28;20494;-66
2023/08/14 05:02:12;;;;;;;6.90;6.70;;;13.20;99.90;;;;;;5030142;28;20825;-66
2023/08/14 05:04:39;;;;;;;6.67;6.47;;;13.30;99.90;;;;;;5027671;28;20469;-64
2023/08/14 05:07:08;;;;;;;7.13;6.93;;;13.40;99.90;;;;;;5020231;28;20472;-65
2023/08/14 05:09:35;;;;;;;7.13;6.93;;;13.50;99.90;;;;;;5041147;28;20464;-65
2023/08/14 05:12:02;;;;;;;7.10;6.90;;;13.50;99.90;;;;;;5033226;28;20496;-67
2023/08/14 05:14:29;;;;;;;7.57;7.27;;;13.70;99.90;;;;;;5022826;28;20457;-65
2023/08/14 05:16:55;;;;;;;9.83;9.37;;;13.80;99.90;;;;;;5023718;28;20466;-66
2023/08/14 05:19:22;;;;;;;6.40;6.20;;;13.90;99.90;;;;;;5035740;28;20472;-66
2023/08/14 05:21:50;;;;;;;6.47;6.27;;;14.00;99.90;;;;;;5026330;28;20542;-65
2023/08/14 05:24:18;;;;;;;6.00;5.80;;;14.10;99.90;;;;;;5027521;28;20470;-65
2023/08/14 05:26:45;;;;;;;6.40;6.20;;;14.20;99.90;;;;;;5030310;28;20476;-64
2023/08/14 05:29:12;;;;;;;6.20;6.00;;;14.40;99.90;;;;;;5020793;28;20476;-64
2023/08/14 05:31:39;;;;;;;10.37;9.87;;;14.60;99.90;;;;;;5024194;28;20468;-64
2023/08/14 05:34:05;;;;;;;7.07;6.87;;;14.80;99.90;;;;;;5012615;28;20462;-65
2023/08/14 05:36:32;;;;;;;7.20;7.00;;;14.90;99.90;;;;;;5028832;28;20585;-66
2023/08/14 05:39:00;;;;;;;6.40;6.20;;;15.00;99.90;;;;;;5037170;28;20455;-64
2023/08/14 05:41:28;;;;;;;6.40;6.20;;;15.20;99.90;;;;;;5025520;28;20460;-65
2023/08/14 05:43:55;;;;;;;5.50;5.40;;;15.40;99.90;;;;;;5018016;28;20466;-67
2023/08/14 05:46:23;;;;;;;5.97;5.77;;;15.60;99.90;;;;;;5020897;28;20465;-65
2023/08/14 05:48:52;;;;;;;7.93;7.63;;;15.90;99.90;;;;;;5027368;28;20498;-65
2023/08/14 05:51:19;;;;;;;5.87;5.67;;;16.10;99.90;;;;;;5038559;28;20457;-64
2023/08/14 05:53:46;;;;;;;5.80;5.60;;;16.30;99.90;;;;;;5025919;28;20832;-65
2023/08/14 05:56:14;;;;;;;5.30;5.20;;;16.40;99.90;;;;;;5017729;28;20471;-65
2023/08/14 05:58:42;;;;;;;5.53;5.43;;;16.60;99.90;;;;;;5016609;28;20514;-65
2023/08/14 06:01:09;;;;;;;5.10;5.00;;;16.80;99.90;;;;;;5032058;28;20499;-65
2023/08/14 06:03:38;;;;;;;5.50;5.40;;;16.80;99.90;;;;;;5027940;28;20459;-65
2023/08/14 06:06:05;;;;;;;6.83;6.63;;;16.90;99.90;;;;;;5025109;28;20498;-65
2023/08/14 06:08:32;;;;;;;7.10;6.90;;;17.00;99.90;;;;;;5036562;28;20753;-65
2023/08/14 06:10:59;;;;;;;6.50;6.30;;;17.00;99.90;;;;;;5024025;28;20506;-65
2023/08/14 06:13:26;;;;;;;6.33;6.13;;;17.10;99.90;;;;;;5027272;28;20940;-65
2023/08/14 06:15:54;;;;;;;6.30;6.10;;;17.10;99.90;;;;;;5034905;28;20475;-66
2023/08/14 06:18:21;;;;;;;6.60;6.40;;;17.30;99.90;;;;;;5036386;28;20493;-65
2023/08/14 06:20:48;;;;;;;6.13;5.93;;;17.40;99.90;;;;;;5037646;28;20501;-67
2023/08/14 06:23:15;;;;;;;7.07;6.87;;;17.50;99.90;;;;;;5033809;28;20469;-65
2023/08/14 06:25:43;;;;;;;7.23;7.03;;;17.60;99.90;;;;;;5031585;28;20695;-66
2023/08/14 06:28:10;;;;;;;6.50;6.30;;;17.70;99.90;;;;;;5026209;28;20473;-65
2023/08/14 06:30:38;;;;;;;7.80;7.60;;;17.80;99.90;;;;;;5035466;28;20475;-66
2023/08/14 06:33:06;;;;;;;7.60;7.40;;;18.00;99.90;;;;;;5037289;28;20471;-65
2023/08/14 06:35:34;;;;;;;8.17;7.87;;;18.20;99.90;;;;;;5031653;28;20464;-65
2023/08/14 06:38:01;;;;;;;9.63;9.33;;;18.50;99.90;;;;;;5023387;28;20500;-64
2023/08/14 06:40:27;;;;;;;9.10;8.80;;;18.80;99.90;;;;;;5027514;28;20501;-66
2023/08/14 06:42:54;;;;;;;10.23;9.83;;;19.10;99.90;;;;;;5028552;28;20465;-66
2023/08/14 06:45:22;;;;;;;10.30;9.90;;;19.30;99.90;;;;;;5029852;28;20463;-65
2023/08/14 06:47:49;;;;;;;11.10;10.70;;;19.50;99.90;;;;;;5027638;28;20543;-65
2023/08/14 06:50:18;;;;;;;11.40;11.00;;;19.60;99.90;;;;;;5032716;28;20464;-66
2023/08/14 06:52:46;;;;;;;11.30;10.90;;;19.80;99.90;;;;;;5021697;28;20544;-66
2023/08/14 06:55:14;;;;;;;12.50;12.00;;;19.90;99.90;;;;;;5019040;28;20496;-65
2023/08/14 06:57:40;;;;;;;12.33;11.83;;;20.00;99.90;;;;;;5023167;28;21022;-65
2023/08/14 07:00:12;;;;;;;12.67;12.17;;;20.20;99.90;;;;;;5021318;28;20484;-64
2023/08/14 07:02:38;;;;;;;12.70;12.20;;;20.30;99.90;;;;;;5028429;28;20975;-65
2023/08/14 07:05:05;;;;;;;13.40;12.90;;;20.40;99.90;;;;;;5043212;28;20463;-64
2023/08/14 07:07:34;;;;;;;12.70;12.20;;;20.50;99.90;;;;;;5016437;28;20465;-65
2023/08/14 07:10:00;;;;;;;13.27;12.77;;;20.60;99.90;;;;;;5026292;28;20534;-66
2023/08/14 07:12:28;;;;;;;13.20;12.70;;;20.60;99.90;;;;;;5028169;28;20480;-66
2023/08/14 07:14:56;;;;;;;13.60;13.10;;;20.60;99.90;;;;;;5020325;28;20465;-66
2023/08/14 07:17:24;;;;;;;13.63;13.13;;;20.80;99.90;;;;;;5027738;28;20460;-65
2023/08/14 07:19:51;;;;;;;13.50;13.00;;;21.00;99.90;;;;;;5023860;28;20501;-67
2023/08/14 07:22:18;;;;;;;14.03;13.43;;;21.10;99.90;;;;;;5026383;28;20461;-65
2023/08/14 07:24:46;;;;;;;14.83;14.23;;;21.10;99.90;;;;;;5015120;28;20476;-66
2023/08/14 07:27:13;;;;;;;13.40;12.90;;;21.30;99.90;;;;;;5031458;28;20460;-66
2023/08/14 07:29:40;;;;;;;13.53;13.03;;;21.50;99.90;;;;;;5034449;28;20457;-66
2023/08/14 07:32:07;;;;;;;15.40;14.17;;;21.70;99.90;;;;;;5029755;28;20581;-65
2023/08/14 07:34:34;;;;;;;13.53;13.03;;;21.70;99.90;;;;;;5015937;28;20466;-66
2023/08/14 07:37:01;;;;;;;13.57;13.07;;;21.80;99.90;;;;;;5018038;28;20484;-66
2023/08/14 07:39:28;;;;;;;14.10;13.50;;;21.70;99.90;;;;;;5031847;28;20512;-66
2023/08/14 07:41:56;;;;;;;14.10;13.50;;;21.70;99.90;;;;;;5015975;28;20480;-67
2023/08/14 07:44:23;;;;;;;13.60;13.10;;;21.80;99.90;;;;;;5020085;28;20471;-66
2023/08/14 07:46:50;;;;;;;13.60;13.10;;;21.90;99.90;;;;;;5025161;28;20465;-66
2023/08/14 07:49:17;;;;;;;13.50;13.00;;;22.00;99.90;;;;;;5017854;28;20468;-66
2023/08/14 07:51:45;;;;;;;14.10;13.50;;;22.00;99.90;;;;;;5022251;28;20457;-67
2023/08/14 07:54:12;;;;;;;14.33;13.73;;;21.80;99.90;;;;;;5020278;28;20480;-67
2023/08/14 07:56:39;;;;;;;14.50;13.90;;;21.80;99.90;;;;;;5017803;28;20554;-66
2023/08/14 07:59:08;;;;;;;13.90;13.30;;;21.70;99.90;;;;;;5023446;28;20457;-65
2023/08/14 08:01:36;;;;;;;13.80;13.20;;;21.70;99.90;;;;;;5017556;28;20488;-65
2023/08/14 08:04:05;;;;;;;13.30;12.80;;;22.00;99.90;;;;;;5023057;28;20526;-66
2023/08/14 08:06:32;;;;;;;13.80;13.20;;;22.10;99.90;;;;;;5022590;28;20476;-66
2023/08/14 08:08:59;;;;;;;16.00;15.20;;;22.10;99.90;;;;;;5020315;28;20464;-67
2023/08/14 08:11:26;;;;;;;14.10;13.50;;;22.10;99.90;;;;;;5019717;28;20574;-65
2023/08/14 08:13:53;;;;;;;14.97;14.00;;;22.10;99.90;;;;;;5025159;28;20460;-67
2023/08/14 08:16:23;;;;;;;14.10;13.50;;;22.20;99.90;;;;;;5023894;28;20464;-66
2023/08/14 08:18:49;;;;;;;14.20;13.60;;;22.20;99.90;;;;;;5026516;28;20455;-66
2023/08/14 08:21:16;;;;;;;13.50;12.93;;;22.20;99.90;;;;;;5028739;28;20523;-67
2023/08/14 08:23:43;;;;;;;13.50;13.00;;;22.20;99.90;;;;;;5021993;28;20953;-66
2023/08/14 08:26:10;;;;;;;13.60;13.00;;;22.20;99.90;;;;;;5027458;28;20457;-65
2023/08/14 08:28:37;;;;;;;13.87;13.27;;;22.00;99.90;;;;;;5031110;28;20920;-68
2023/08/14 08:31:05;;;;;;;14.57;13.97;;;22.00;99.90;;;;;;5023736;28;20497;-65
2023/08/14 08:33:33;;;;;;;14.33;13.73;;;22.00;99.90;;;;;;5030440;28;20460;-66
2023/08/14 08:36:00;;;;;;;14.00;13.40;;;22.00;99.90;;;;;;5021872;28;20833;-67
2023/08/14 08:38:27;;;;;;;13.10;12.60;;;22.10;99.90;;;;;;5027432;28;20823;-66
2023/08/14 08:40:56;;;;;;;13.70;13.20;;;22.20;99.90;;;;;;5026078;28;20574;-67
2023/08/14 08:43:24;;;;;;;13.60;13.10;;;22.30;99.90;;;;;;5019072;28;20464;-67
2023/08/14 08:45:55;;;;;;;13.70;13.17;;;22.60;99.90;;;;;;5025320;28;20460;-65
2023/08/14 08:48:23;;;;;;;14.03;13.43;;;23.20;99.90;;;;;;5022511;28;20468;-66
2023/08/14 08:50:52;;;;;;;14.50;13.90;;;24.00;99.90;;;;;;5021863;28;20496;-66
2023/08/14 08:53:20;;;;;;;14.60;14.00;;;24.80;99.90;;;;;;5026883;28;20461;-66
2023/08/14 08:55:47;;;;;;;14.57;13.97;;;25.70;99.90;;;;;;5029548;28;20952;-67
2023/08/14 08:58:18;;;;;;;15.00;14.40;;;26.50;99.90;;;;;;5024115;28;20482;-66
2023/08/14 09:00:45;;;;;;;15.00;14.40;;;26.90;99.90;;;;;;5025951;28;20484;-66
2023/08/14 09:03:12;;;;;;;15.50;14.90;;;27.30;99.90;;;;;;5020220;28;20683;-66
2023/08/14 09:05:40;;;;;;;15.40;14.80;;;27.60;99.90;;;;;;5027428;28;20457;-66
2023/08/14 09:08:09;;;;;;;14.87;14.37;;;27.80;99.90;;;;;;5021453;28;20465;-66
2023/08/14 09:10:36;;;;;;;15.60;15.00;;;28.30;99.90;;;;;;5027271;28;20500;-67
2023/08/14 09:13:03;;;;;;;15.53;15.03;;;28.90;99.90;;;;;;5027236;28;20468;-67
2023/08/14 09:15:30;;;;;;;14.77;14.27;;;29.40;99.90;;;;;;5025368;28;20460;-68
2023/08/14 09:17:57;;;;;;;15.70;15.10;;;29.40;99.90;;;;;;5022513;28;20821;-67
2023/08/14 09:20:25;;;;;;;15.30;14.80;;;29.50;99.90;;;;;;5022183;28;20491;-66
2023/08/14 09:22:58;;;;;;;15.30;14.80;;;29.40;99.90;;;;;;5027269;28;21047;-67
2023/08/14 09:25:26;;;;;;;15.37;14.87;;;28.80;99.90;;;;;;5019782;28;20464;-66
2023/08/14 09:27:54;;;;;;;15.07;14.57;;;28.30;99.90;;;;;;5027630;28;20936;-67
2023/08/14 09:30:24;;;;;;;15.57;15.07;;;27.80;99.90;;;;;;5025217;28;20995;-66
2023/08/14 09:32:51;;;;;;;15.13;14.63;;;27.30;99.90;;;;;;5021524;28;20466;-67
2023/08/14 09:35:18;;;;;;;14.47;14.07;;;27.70;99.90;;;;;;5020969;28;20835;-67
2023/08/14 09:37:47;;;;;;;14.97;14.47;;;28.20;99.90;;;;;;5018374;28;20456;-67
2023/08/14 09:40:16;;;;;;;13.97;13.57;;;28.40;99.90;;;;;;5025324;28;20464;-67
2023/08/14 09:42:46;;;;;;;14.40;14.00;;;28.60;99.90;;;;;;5021750;28;20920;-67
2023/08/14 09:45:14;;;;;;;14.87;14.37;;;29.00;99.90;;;;;;5025998;28;20844;-67
2023/08/14 09:47:43;;;;;;;14.30;13.90;;;29.30;99.90;;;;;;5015568;28;20480;-68
2023/08/14 09:50:10;;;;;;;15.50;15.00;;;29.20;99.90;;;;;;5019908;28;20563;-67
2023/08/14 09:52:38;;;;;;;15.37;14.87;;;29.60;99.90;;;;;;5015579;28;22157;-68
2023/08/14 09:55:05;;;;;;;14.10;13.70;;;29.60;99.90;;;;;;5019449;28;20567;-67
2023/08/14 09:57:33;;;;;;;15.13;14.63;;;29.50;99.90;;;;;;5026985;28;20457;-68
2023/08/14 10:00:02;;;;;;;14.70;14.30;;;30.00;99.90;;;;;;5025569;28;20468;-67
2023/08/14 10:02:32;;;;;;;14.40;14.00;;;30.20;99.90;;;;;;5022112;28;20853;-67
2023/08/14 10:05:02;;;;;;;14.77;14.37;;;30.40;99.90;;;;;;5025637;28;20465;-67
2023/08/14 10:07:29;;;;;;;15.00;14.50;;;31.00;99.90;;;;;;5024262;28;20554;-67
2023/08/14 10:09:57;;;;;;;15.50;15.00;;;30.40;99.90;;;;;;5019917;28;20687;-67
2023/08/14 10:12:29;;;;;;;15.13;14.63;;;30.20;99.90;;;;;;5015790;28;21004;-68
2023/08/14 10:15:05;;;;;;;14.77;14.37;;;30.80;99.90;;;;;;5015105;28;20968;-67
2023/08/14 10:17:36;;;;;;;13.93;13.53;;;31.30;99.90;;;;;;5023256;28;20452;-67
2023/08/14 10:20:05;;;;;;;14.10;13.70;;;31.50;99.90;;;;;;5025233;28;20453;-68
2023/08/14 10:22:33;;;;;;;14.30;13.90;;;32.00;99.90;;;;;;5025973;28;20493;-67
2023/08/14 10:25:04;;;;;;;14.50;14.10;;;32.40;99.90;;;;;;5024474;28;20538;-68
2023/08/14 10:27:31;;;;;;;14.30;13.90;;;32.90;99.90;;;;;;5026289;28;20534;-68
2023/08/14 10:29:59;;;;;;;14.60;14.20;;;32.80;99.90;;;;;;5017360;28;20578;-67
2023/08/14 10:32:28;;;;;;;15.17;14.67;;;32.80;97.60;;;;;;5020464;28;20468;-68
2023/08/14 10:34:55;;;;;;;14.40;14.00;;;32.70;98.30;;;;;;5026722;28;20453;-68
2023/08/14 10:37:27;;;;;;;13.90;13.50;;;32.40;97.90;;;;;;5022539;28;20826;-68
2023/08/14 10:39:59;;;;;;;14.43;14.03;;;32.60;96.70;;;;;;5022689;28;20460;-68
2023/08/14 10:42:26;;;;;;;14.37;13.97;;;32.50;96.10;;;;;;5020252;28;20583;-68
2023/08/14 10:44:53;;;;;;;14.33;13.93;;;32.80;95.00;;;;;;5024375;28;20464;-68
2023/08/14 10:47:20;;;;;;;15.07;14.60;;;31.80;95.20;;;;;;5020766;28;20471;-67
2023/08/14 10:49:51;;;;;;;14.90;14.50;;;31.70;95.80;;;;;;5024382;28;20456;-68
2023/08/14 10:52:20;;;;;;;14.37;13.97;;;32.00;96.10;;;;;;5012960;28;20468;-68
2023/08/14 10:54:51;;;;;;;14.13;13.73;;;32.30;94.70;;;;;;5023404;28;20580;-68
2023/08/14 10:57:27;;;;;;;14.37;13.97;;;32.60;95.10;;;;;;5025792;28;20567;-68
2023/08/14 10:59:58;;;;;;;13.93;13.53;;;32.70;94.10;;;;;;5024437;28;20464;-68
2023/08/14 11:02:26;;;;;;;14.90;14.43;;;33.10;93.20;;;;;;5022971;28;20511;-68
2023/08/14 11:05:01;;;;;;;14.10;13.70;;;33.60;93.10;;;;;;5018938;28;20475;-68
2023/08/14 11:07:29;;;;;;;15.10;14.60;;;34.10;93.60;;;;;;5023489;28;20453;-68
2023/08/14 11:09:58;;;;;;;14.27;13.87;;;34.30;92.10;;;;;;5025620;28;20497;-69
2023/08/14 11:12:25;;;;;;;14.47;14.07;;;34.00;91.50;;;;;;5023671;28;20505;-69
2023/08/14 11:14:54;;;;;;;14.43;14.03;;;34.00;90.80;;;;;;5024533;28;20460;-68
2023/08/14 11:17:21;;;;;;;13.70;13.30;;;33.90;91.10;;;;;;5018442;28;20979;-67
2023/08/14 11:19:48;;;;;;;13.90;13.50;;;34.60;90.10;;;;;;5020871;28;20452;-68
2023/08/14 11:22:16;;;;;;;14.10;13.70;;;34.80;90.60;;;;;;5025925;28;20554;-68
2023/08/14 11:24:43;;;;;;;13.60;13.20;;;35.10;91.50;;;;;;5024934;28;20465;-68
2023/08/14 11:27:10;;;;;;;13.10;12.80;;;35.10;91.10;;;;;;5019332;28;20476;-68
2023/08/14 11:29:38;;;;;;;13.80;13.40;;;34.90;90.10;;;;;;5017440;28;20464;-68
2023/08/14 11:32:06;;;;;;;13.50;13.10;;;35.20;89.80;;;;;;5018762;28;20473;-68
2023/08/14 11:34:34;;;;;;;13.80;13.40;;;35.20;90.50;;;;;;5025410;28;20456;-68
2023/08/14 11:37:02;;;;;;;13.77;13.37;;;34.70;90.50;;;;;;5019163;28;20831;-68
2023/08/14 11:39:30;;;;;;;13.20;12.80;;;34.70;90.40;;;;;;5024462;28;20684;-69
2023/08/14 11:41:58;;;;;;;13.80;13.40;;;34.20;90.30;;;;;;5018918;28;20495;-69
2023/08/14 11:44:26;;;;;;;13.30;12.90;;;34.10;90.50;;;;;;5021249;28;20480;-69
2023/08/14 11:46:53;;;;;;;13.47;13.07;;;34.30;90.20;;;;;;5024507;28;20461;-68
2023/08/14 11:49:20;;;;;;;12.93;12.63;;;34.00;91.10;;;;;;5022598;28;20506;-68
2023/08/14 11:51:47;;;;;;;13.90;13.50;;;34.30;91.80;;;;;;5023057;28;20839;-68
2023/08/14 11:54:15;;;;;;;13.60;13.20;;;34.70;90.90;;;;;;5018735;28;20493;-68
2023/08/14 11:56:45;;;;;;;13.47;13.07;;;34.80;90.70;;;;;;5020920;28;20468;-68
2023/08/14 11:59:12;;;;;;;12.90;12.60;;;34.90;90.40;;;;;;5030244;28;20808;-68
2023/08/14 12:01:41;;;;;;;13.63;13.23;;;35.00;91.50;;;;;;5022411;28;20510;-68
2023/08/14 12:04:08;;;;;;;13.03;12.73;;;35.60;91.40;;;;;;5027335;28;20485;-68
2023/08/14 12:06:36;;;;;;;13.77;13.37;;;35.70;90.50;;;;;;5019109;28;20477;-69
2023/08/14 12:09:06;;;;;;;13.67;13.27;;;35.90;89.60;;;;;;5027069;28;20556;-68
2023/08/14 12:11:33;;;;;;;13.70;13.30;;;36.20;90.40;;;;;;5021390;28;20477;-69
2023/08/14 12:14:04;;;;;;;14.00;13.60;;;35.50;90.00;;;;;;5022883;28;20465;-68
2023/08/14 12:16:32;;;;;;;13.67;13.27;;;35.60;90.50;;;;;;5017588;28;20914;-69
2023/08/14 12:18:59;;;;;;;12.93;12.60;;;35.10;90.10;;;;;;5024192;28;21119;-69
2023/08/14 12:21:27;;;;;;;13.00;12.70;;;34.60;90.50;;;;;;5018069;28;20500;-68
2023/08/14 12:23:55;;;;;;;13.67;13.27;;;35.00;90.00;;;;;;5034507;28;20505;-68
2023/08/14 12:26:22;;;;;;;13.83;13.43;;;35.20;89.90;;;;;;5024233;28;20448;-69
2023/08/14 12:28:49;;;;;;;13.53;13.13;;;35.80;90.70;;;;;;5014359;28;20462;-68
2023/08/14 12:31:18;;;;;;;13.90;13.50;;;36.20;88.80;;;;;;5025915;28;20460;-68
2023/08/14 12:33:45;;;;;;;13.37;12.97;;;36.60;87.50;;;;;;5014685;28;20469;-68
2023/08/14 12:36:12;;;;;;;13.50;13.10;;;37.00;88.00;;;;;;5031080;28;20460;-68
2023/08/14 12:38:39;;;;;;;13.40;13.00;;;36.70;85.30;;;;;;5017261;28;20460;-68
2023/08/14 12:41:06;;;;;;;13.60;13.20;;;36.60;86.50;;;;;;5023239;28;20947;-68